Skip Navigation Links Skip Navigation Links

Current Weather

Danville Regional, Danville, Va.

For information only: do not use for flight planning or navigation.
Latest weather
Observation time Thursday, August 16, 2018 1:53 AM EDT
Local time Thursday, August 16, 2018 2:29 AM EDT
Flight conditions Marginal Visual Meteorological Conditions
Winds
Wind speed calm
Visibility 4 mi.
Present weather mist
Sky condition
Ceiling unlimited
Sky clear
Temperature 68°F
Dewpoint 68°F
Altimeter 30.11 in.Hg
Pressure change last 3 hours-0.01 in.Hg
Pressure rising, then falling
Derived measurements
Relative humidity 100%
Density altitude 1257 ft.
Sea-level pressure 30.08 in.Hg
Climate data
Temperature minimum, last 6 hours 68°F
Temperature maximum, last 6 hours 76°F
Remarks
Fully automated report.
Automated weather observing station with precipitation discriminator.
METAR KDAN 160553Z AUTO 00000KT 4SM BR CLR 20/20 A3011 RMK AO2 SLP186 T02000200 10244 20200 50004

Settings

Location code

InnerDrive.Weather 4.0.6770.0 Release CLR 4.0.30319.42000
Copyright ©2018 Inner Drive Technology. All rights reserved. Portions Copyright ©1986-2018 David Braverman.

Find weather

Site navigation


Skip Navigation Links

Place info

Page info

PayPal - The safer, easier way to pay online!

Return home.

Copyright ©2018 Inner Drive Technology. Purveyors of fine, hand-crafted computer software. Page printed 2018-08-16T06:29:00 UTC.